Time;durP1;ratioP1;P1;durP2;ratioP2;P2;SDS_P1;SDS_P2;PMS_P1;PMS_P2;Temp;Humidity;BMP_temperature;BMP_pressure;BME280_temperature;BME280_humidity;BME280_pressure;Samples;Min_cycle;Max_cycle;Signal;HPM_P1;HPM_P2
2023/05/14 00:01:46;;;;;;;;;;;;;;;4.09;63.17;96714.00;6295714;28;20413;-74
2023/05/14 00:04:50;;;;;;;;;;;;;;;4.02;63.04;96716.88;6295768;28;19921;-74
2023/05/14 00:07:53;;;;;;;;;;;;;;;3.98;63.30;96715.28;6295742;28;19920;-74
2023/05/14 00:10:57;;;;;;;;;;;;;;;3.98;63.46;96723.09;6278092;28;19925;-75
2023/05/14 00:13:59;;;;;;;;;;;;;;;4.01;62.95;96719.53;6295499;28;20009;-75
2023/05/14 00:17:05;;;;;;;;;;;;;;;4.01;63.02;96722.97;6295512;28;19930;-74
2023/05/14 00:20:10;;;;;;;;;;;;;;;4.05;62.57;96724.56;6295471;28;19919;-74
2023/05/14 00:23:16;;;;;;;;;;;;;;;4.08;62.63;96727.91;6295388;28;20385;-75
2023/05/14 00:26:20;;;;;;;;;;;;;;;4.11;62.90;96725.22;6295257;28;19927;-74
2023/05/14 00:29:24;;;;;;;;;;;;;;;4.17;62.12;96730.16;6295235;28;20417;-74
2023/05/14 00:32:27;;;;;;;;;;;;;;;4.27;62.10;96731.44;6295266;28;20285;-75
2023/05/14 00:35:35;;;;;;;;;;;;;;;4.35;62.39;96731.97;6295206;28;20428;-74
2023/05/14 00:38:37;;;;;;;;;;;;;;;4.43;62.07;96731.66;6295056;28;19990;-75
2023/05/14 00:41:41;;;;;;;;;;;;;;;4.47;62.10;96726.25;6294911;28;20309;-76
2023/05/14 00:44:43;;;;;;;;;;;;;;;4.52;62.48;96738.22;6277386;28;20417;-74
2023/05/14 00:47:47;;;;;;;;;;;;;;;4.53;62.45;96734.69;6276995;28;19916;-74
2023/05/14 00:50:50;;;;;;;;;;;;;;;4.52;62.44;96738.22;6276644;28;20421;-75
2023/05/14 00:53:55;;;;;;;;;;;;;;;4.53;62.60;96739.91;6277128;28;19920;-74
2023/05/14 00:56:58;;;;;;;;;;;;;;;4.55;62.55;96743.31;6294808;28;20002;-74
2023/05/14 01:00:02;;;;;;;;;;;;;;;4.58;62.43;96745.78;6294725;28;19924;-75
2023/05/14 01:03:07;;;;;;;;;;;;;;;4.62;62.46;96756.03;6294804;28;20519;-74
2023/05/14 01:06:26;;;;;;;;;;;;;;;4.68;62.51;96754.91;6276919;28;19921;-74
2023/05/14 01:09:32;;;;;;;;;;;;;;;4.79;62.35;96768.31;6294554;28;20504;-74
2023/05/14 01:12:38;;;;;;;;;;;;;;;4.89;61.94;96769.59;6294768;28;19947;-73
2023/05/14 01:15:41;;;;;;;;;;;;;;;5.03;61.77;96773.38;6294499;28;19959;-75
2023/05/14 01:18:47;;;;;;;;;;;;;;;5.16;61.44;96777.13;6276863;28;19920;-76
2023/05/14 01:21:50;;;;;;;;;;;;;;;5.32;61.02;96775.53;6294497;28;20401;-75
2023/05/14 01:24:55;;;;;;;;;;;;;;;5.44;60.95;96775.88;6276618;28;19920;-74
2023/05/14 01:27:57;;;;;;;;;;;;;;;5.52;60.90;96766.78;6276627;28;20393;-74
2023/05/14 01:31:13;;;;;;;;;;;;;;;5.63;60.80;96774.09;6294732;28;19920;-75
2023/05/14 01:34:20;;;;;;;;;;;;;;;5.73;60.63;96783.19;6294459;28;19942;-75
2023/05/14 01:37:25;;;;;;;;;;;;;;;5.82;60.51;96782.75;6276873;28;19928;-74
2023/05/14 01:40:30;;;;;;;;;;;;;;;5.93;60.60;96784.03;6294320;28;19931;-75
2023/05/14 01:43:34;;;;;;;;;;;;;;;6.02;60.44;96799.28;6294377;28;19927;-74
2023/05/14 01:46:37;;;;;;;;;;;;;;;6.12;60.46;96784.03;6294343;28;20201;-74
2023/05/14 01:49:41;;;;;;;;;;;;;;;6.21;60.18;96789.63;6294136;28;19920;-75
2023/05/14 01:52:45;;;;;;;;;;;;;;;6.32;60.00;96777.81;6294477;28;19961;-75
2023/05/14 01:55:49;;;;;;;;;;;;;;;6.43;60.11;96784.19;6260007;28;19932;-74
2023/05/14 01:58:51;;;;;;;;;;;;;;;6.57;59.34;96787.88;6276465;28;19920;-74
2023/05/14 02:01:55;;;;;;;;;;;;;;;6.74;58.51;96791.34;6295401;28;20404;-74
2023/05/14 02:04:58;;;;;;;;;;;;;;;6.88;58.58;96795.88;6279928;28;19925;-74
2023/05/14 02:08:02;;;;;;;;;;;;;;;7.09;57.82;96793.91;6280996;28;19927;-73
2023/05/14 02:11:05;;;;;;;;;;;;;;;7.20;58.03;96802.03;6298499;28;20403;-74
2023/05/14 02:14:08;;;;;;;;;;;;;;;7.36;57.94;96809.06;6280606;28;19924;-75
2023/05/14 02:17:15;;;;;;;;;;;;;;;7.50;57.48;96819.69;6298124;28;19920;-74
2023/05/14 02:20:19;;;;;;;;;;;;;;;7.63;57.44;96820.69;6280181;28;19928;-74
2023/05/14 02:23:24;;;;;;;;;;;;;;;7.78;57.32;96818.16;6298189;28;19920;-75
2023/05/14 02:26:30;;;;;;;;;;;;;;;7.92;57.34;96820.88;6298188;28;19931;-74
2023/05/14 02:29:33;;;;;;;;;;;;;;;8.08;56.83;96826.97;6280007;28;19920;-74
2023/05/14 02:32:39;;;;;;;;;;;;;;;8.21;56.96;96827.16;6297968;28;19931;-76
2023/05/14 02:35:41;;;;;;;;;;;;;;;8.36;56.56;96829.84;6298010;28;19920;-74
2023/05/14 02:38:47;;;;;;;;;;;;;;;8.48;56.31;96830.00;6280146;28;19961;-74
2023/05/14 02:41:50;;;;;;;;;;;;;;;8.64;56.17;96839.63;6297689;28;20009;-75
2023/05/14 02:44:55;;;;;;;;;;;;;;;8.81;55.56;96842.13;6297805;28;19943;-74
2023/05/14 02:47:57;;;;;;;;;;;;;;;8.95;55.75;96846.56;6297511;28;20301;-74
2023/05/14 02:51:02;;;;;;;;;;;;;;;9.09;55.35;96845.75;6279669;28;19920;-75
2023/05/14 02:54:05;;;;;;;;;;;;;;;9.25;54.91;96841.25;6297594;28;20308;-75
2023/05/14 02:57:09;;;;;;;;;;;;;;;9.41;54.91;96849.91;6280019;28;20393;-75
2023/05/14 03:00:12;;;;;;;;;;;;;;;9.58;54.49;96843.63;6278968;28;19920;-76
2023/05/14 03:03:15;;;;;;;;;;;;;;;9.74;54.52;96847.91;6279433;28;19921;-74
2023/05/14 03:06:18;;;;;;;;;;;;;;;9.87;54.17;96847.06;6296971;28;19924;-74
2023/05/14 03:09:22;;;;;;;;;;;;;;;10.09;54.15;96848.34;6279016;28;19927;-75
2023/05/14 03:12:25;;;;;;;;;;;;;;;10.30;53.85;96847.03;6296865;28;19951;-75
2023/05/14 03:15:28;;;;;;;;;;;;;;;10.46;53.73;96853.91;6278197;28;20011;-74
2023/05/14 03:18:33;;;;;;;;;;;;;;;10.59;53.56;96846.94;6296980;28;19920;-75
2023/05/14 03:21:37;;;;;;;;;;;;;;;10.89;53.23;96851.09;6296555;28;19920;-75
2023/05/14 03:24:40;;;;;;;;;;;;;;;11.01;53.09;96853.78;6278896;28;19927;-75
2023/05/14 03:27:42;;;;;;;;;;;;;;;11.21;52.90;96852.44;6296712;28;20296;-74
2023/05/14 03:30:44;;;;;;;;;;;;;;;11.43;52.52;96850.94;6296405;28;20014;-75
2023/05/14 03:33:48;;;;;;;;;;;;;;;11.62;51.94;96854.00;6296080;28;19923;-75
2023/05/14 03:36:50;;;;;;;;;;;;;;;11.84;51.61;96852.53;6278609;28;20014;-74
2023/05/14 03:39:53;;;;;;;;;;;;;;;12.07;50.93;96851.75;6277940;28;19927;-75
2023/05/14 03:42:56;;;;;;;;;;;;;;;12.27;50.56;96865.31;6296620;28;19956;-74
2023/05/14 03:45:59;;;;;;;;;;;;;;;12.46;49.87;96865.69;6277910;28;19927;-75
2023/05/14 03:49:03;;;;;;;;;;;;;;;12.66;49.16;96871.31;6261667;28;19928;-74
2023/05/14 03:52:06;;;;;;;;;;;;;;;12.89;48.30;96867.81;6296076;28;19920;-75
2023/05/14 03:55:10;;;;;;;;;;;;;;;13.02;48.41;96870.38;6295971;28;19924;-76
2023/05/14 03:58:13;;;;;;;;;;;;;;;13.20;48.27;96870.81;6277341;28;19920;-76
2023/05/14 04:01:16;;;;;;;;;;;;;;;13.41;48.10;96874.47;6295687;28;19942;-76
2023/05/14 04:04:20;;;;;;;;;;;;;;;13.63;47.95;96868.38;6295809;28;19920;-75
2023/05/14 04:07:24;;;;;;;;;;;;;;;13.86;47.49;96874.53;6295705;28;20380;-75
2023/05/14 04:10:27;;;;;;;;;;;;;;;14.06;47.31;96874.78;6295544;28;19927;-75
2023/05/14 04:13:29;;;;;;;;;;;;;;;14.31;44.92;96868.38;6295900;28;20433;-75
2023/05/14 04:16:31;;;;;;;;;;;;;;;14.40;45.02;96880.03;6295287;28;20394;-75
2023/05/14 04:19:35;;;;;;;;;;;;;;;14.63;44.32;96879.06;6295402;28;20015;-75
2023/05/14 04:22:39;;;;;;;;;;;;;;;14.79;43.91;96879.50;6295156;28;20329;-75
2023/05/14 04:25:43;;;;;;;;;;;;;;;14.99;44.37;96875.19;6295132;28;19930;-75
2023/05/14 04:28:46;;;;;;;;;;;;;;;15.15;44.12;96873.94;6295487;28;19926;-75
2023/05/14 04:31:50;;;;;;;;;;;;;;;15.34;43.98;96883.84;6295002;28;20019;-75
2023/05/14 04:34:53;;;;;;;;;;;;;;;16.76;42.25;96889.25;6294978;28;19926;-74
2023/05/14 04:37:56;;;;;;;;;;;;;;;19.92;38.30;96885.63;6294882;28;19927;-74
2023/05/14 04:40:59;;;;;;;;;;;;;;;23.08;34.41;96891.44;6276690;28;20188;-74
2023/05/14 04:44:02;;;;;;;;;;;;;;;25.89;32.34;96906.72;6276875;28;19924;-74
2023/05/14 04:47:06;;;;;;;;;;;;;;;28.37;30.61;96899.25;6294728;28;20007;-74
2023/05/14 04:50:10;;;;;;;;;;;;;;;30.79;28.61;96902.72;6277162;28;19970;-74
2023/05/14 04:53:13;;;;;;;;;;;;;;;32.51;25.36;96898.53;6294954;28;19920;-75
2023/05/14 04:56:17;;;;;;;;;;;;;;;33.92;23.17;96895.31;6294981;28;20014;-74
2023/05/14 04:59:21;;;;;;;;;;;;;;;35.01;19.39;96898.53;6294929;28;20249;-75
2023/05/14 05:02:24;;;;;;;;;;;;;;;35.62;19.39;96904.75;6294780;28;20019;-75
2023/05/14 05:05:28;;;;;;;;;;;;;;;36.27;16.32;96904.78;6294718;28;19927;-74
2023/05/14 05:08:32;;;;;;;;;;;;;;;36.00;16.93;96905.63;6294820;28;20019;-75
2023/05/14 05:11:34;;;;;;;;;;;;;;;36.88;17.26;96907.06;6277105;28;20402;-75
2023/05/14 05:14:37;;;;;;;;;;;;;;;38.70;16.90;96913.16;6294695;28;19920;-76
2023/05/14 05:17:41;;;;;;;;;;;;;;;40.54;17.47;96909.31;6260062;28;19920;-75
2023/05/14 05:20:44;;;;;;;;;;;;;;;41.75;17.84;96912.81;6276792;28;19982;-75
2023/05/14 05:23:47;;;;;;;;;;;;;;;42.55;17.33;96913.72;6294416;28;19920;-75
2023/05/14 05:26:50;;;;;;;;;;;;;;;42.82;14.28;96919.34;6276835;28;19920;-74
2023/05/14 05:29:54;;;;;;;;;;;;;;;43.16;14.04;96923.66;6276624;28;19927;-75
2023/05/14 05:32:56;;;;;;;;;;;;;;;43.98;12.96;96916.31;6259505;28;19959;-75
2023/05/14 05:35:59;;;;;;;;;;;;;;;43.59;13.39;96909.44;6294181;28;19967;-75
2023/05/14 05:39:02;;;;;;;;;;;;;;;44.05;14.18;96913.94;6280795;28;19920;-75
2023/05/14 05:42:07;;;;;;;;;;;;;;;44.69;12.80;96913.69;6299060;28;20002;-75
2023/05/14 05:45:09;;;;;;;;;;;;;;;44.76;10.53;96918.78;6280937;28;20448;-75
2023/05/14 05:48:12;;;;;;;;;;;;;;;45.24;11.70;96923.56;6281265;28;19920;-75
2023/05/14 05:51:15;;;;;;;;;;;;;;;45.77;11.07;96925.28;6298888;28;19920;-75
2023/05/14 05:54:18;;;;;;;;;;;;;;;46.63;11.81;96933.88;6298944;28;20198;-74
2023/05/14 05:57:22;;;;;;;;;;;;;;;46.52;12.35;96927.88;6264257;28;19998;-75
2023/05/14 06:00:25;;;;;;;;;;;;;;;47.19;8.12;96923.53;6280909;28;19974;-74
2023/05/14 06:03:28;;;;;;;;;;;;;;;47.86;11.42;96924.63;6298757;28;20018;-74
2023/05/14 06:06:32;;;;;;;;;;;;;;;48.46;8.61;96914.84;6298514;28;20011;-73
2023/05/14 06:09:35;;;;;;;;;;;;;;;49.43;9.86;96918.13;6298496;28;20186;-75
2023/05/14 06:12:38;;;;;;;;;;;;;;;47.90;10.45;96908.81;6280640;28;20011;-75
2023/05/14 06:15:41;;;;;;;;;;;;;;;47.20;11.13;96906.50;6298095;28;19981;-75
2023/05/14 06:18:44;;;;;;;;;;;;;;;48.21;9.63;96910.38;6280150;28;19920;-74
2023/05/14 06:21:47;;;;;;;;;;;;;;;49.20;10.38;96909.38;6298019;28;19920;-75
2023/05/14 06:24:50;;;;;;;;;;;;;;;49.19;10.27;96911.38;6280107;28;19931;-74
2023/05/14 06:27:54;;;;;;;;;;;;;;;48.05;9.78;96911.00;6298000;28;20301;-74
2023/05/14 06:30:57;;;;;;;;;;;;;;;44.64;11.95;96890.78;6297854;28;19920;-74
2023/05/14 06:34:01;;;;;;;;;;;;;;;42.74;13.26;96886.84;6297647;28;20354;-75
2023/05/14 06:37:05;;;;;;;;;;;;;;;40.57;13.29;96880.34;6279419;28;20408;-75
2023/05/14 06:40:09;;;;;;;;;;;;;;;36.85;16.55;96879.09;6263310;28;19927;-75
2023/05/14 06:43:12;;;;;;;;;;;;;;;32.78;18.29;96859.84;6297989;28;19973;-74
2023/05/14 06:46:16;;;;;;;;;;;;;;;30.02;18.80;96874.25;6297591;28;20026;-75
2023/05/14 06:49:20;;;;;;;;;;;;;;;27.97;19.11;96861.47;6279627;28;20064;-76
2023/05/14 06:52:24;;;;;;;;;;;;;;;26.49;20.18;96869.34;6297482;28;19942;-76
2023/05/14 06:55:27;;;;;;;;;;;;;;;25.87;20.38;96871.03;6297390;28;20389;-74
2023/05/14 06:58:30;;;;;;;;;;;;;;;24.93;22.11;96876.53;6297384;28;20038;-75
2023/05/14 07:01:33;;;;;;;;;;;;;;;23.60;23.97;96873.78;6297247;28;19920;-76
2023/05/14 07:04:36;;;;;;;;;;;;;;;22.40;26.23;96875.00;6296902;28;20018;-75
2023/05/14 07:07:40;;;;;;;;;;;;;;;21.05;27.72;96873.75;6297259;28;20376;-75
2023/05/14 07:10:43;;;;;;;;;;;;;;;20.69;27.36;96872.31;6278910;28;20304;-75
2023/05/14 07:13:47;;;;;;;;;;;;;;;21.11;27.65;96872.25;6278870;28;19927;-75
2023/05/14 07:16:51;;;;;;;;;;;;;;;22.52;25.58;96875.44;6296724;28;20019;-74
2023/05/14 07:19:56;;;;;;;;;;;;;;;25.22;22.12;96882.88;6278755;28;20011;-75
2023/05/14 07:23:00;;;;;;;;;;;;;;;26.32;21.31;96885.03;6297088;28;20473;-74
2023/05/14 07:26:05;;;;;;;;;;;;;;;24.92;22.38;96884.81;6296970;28;19920;-75
2023/05/14 07:29:08;;;;;;;;;;;;;;;23.79;23.33;96880.53;6296341;28;19920;-76
2023/05/14 07:32:12;;;;;;;;;;;;;;;23.39;24.00;96877.97;6296535;28;20002;-75
2023/05/14 07:35:16;;;;;;;;;;;;;;;23.17;24.04;96879.63;6296143;28;19993;-74
2023/05/14 07:38:19;;;;;;;;;;;;;;;23.86;23.50;96876.06;6278662;28;20382;-75
2023/05/14 07:41:21;;;;;;;;;;;;;;;24.19;23.36;96877.41;6296088;28;20507;-75
2023/05/14 07:44:24;;;;;;;;;;;;;;;24.10;23.11;96880.38;6296433;28;20011;-74
2023/05/14 07:47:28;;;;;;;;;;;;;;;24.06;23.16;96881.75;6278490;28;20411;-76
2023/05/14 07:50:32;;;;;;;;;;;;;;;24.28;23.13;96880.00;6278536;28;20305;-74
2023/05/14 07:53:34;;;;;;;;;;;;;;;25.18;21.96;96886.97;6278075;28;20393;-75
2023/05/14 07:56:37;;;;;;;;;;;;;;;25.77;21.85;96892.09;6278215;28;20403;-75
2023/05/14 07:59:41;;;;;;;;;;;;;;;25.89;21.42;96890.56;6295498;28;19920;-75
2023/05/14 08:02:45;;;;;;;;;;;;;;;25.60;21.32;96890.72;6295567;28;19942;-75
2023/05/14 08:05:50;;;;;;;;;;;;;;;25.58;21.91;96887.38;6295563;28;19963;-74
2023/05/14 08:08:54;;;;;;;;;;;;;;;25.92;21.52;96887.47;6277331;28;20065;-74
2023/05/14 08:11:57;;;;;;;;;;;;;;;26.34;21.15;96882.97;6295606;28;20457;-76
2023/05/14 08:14:59;;;;;;;;;;;;;;;26.16;20.95;96890.75;6295821;28;19924;-75
2023/05/14 08:18:02;;;;;;;;;;;;;;;25.75;19.69;96888.75;6295149;28;19920;-76
2023/05/14 08:21:06;;;;;;;;;;;;;;;25.04;21.75;96883.28;6295606;28;20007;-74
2023/05/14 08:24:11;;;;;;;;;;;;;;;24.32;22.11;96892.09;6295276;28;20022;-75
2023/05/14 08:27:15;;;;;;;;;;;;;;;23.72;22.19;96891.16;6294809;28;20415;-77
2023/05/14 08:30:17;;;;;;;;;;;;;;;23.55;22.84;96895.78;6294991;28;19927;-74
2023/05/14 08:33:21;;;;;;;;;;;;;;;23.33;22.59;96891.28;6294962;28;20011;-75
2023/05/14 08:36:24;;;;;;;;;;;;;;;23.42;22.22;96899.09;6294788;28;20038;-76
2023/05/14 08:39:31;;;;;;;;;;;;;;;24.26;21.83;96898.16;6294944;28;19928;-75
2023/05/14 08:42:39;;;;;;;;;;;;;;;25.50;20.34;96894.53;6294847;28;19973;-75
2023/05/14 08:45:42;;;;;;;;;;;;;;;26.76;19.71;96902.75;6277690;28;19994;-74
2023/05/14 08:48:47;;;;;;;;;;;;;;;29.57;17.88;96910.47;6276983;28;20015;-75
2023/05/14 08:51:50;;;;;;;;;;;;;;;32.84;15.97;96919.69;6277177;28;20019;-75
2023/05/14 08:54:54;;;;;;;;;;;;;;;36.23;13.00;96931.03;6295427;28;20010;-73
2023/05/14 08:57:57;;;;;;;;;;;;;;;38.20;13.20;96925.84;6276647;28;19959;-76
2023/05/14 09:01:01;;;;;;;;;;;;;;;40.34;11.40;96932.41;6294740;28;20499;-75
2023/05/14 09:04:07;;;;;;;;;;;;;;;40.16;10.70;96928.38;6294880;28;19926;-73
2023/05/14 09:07:10;;;;;;;;;;;;;;;38.23;11.39;96925.28;6295011;28;19930;-75
2023/05/14 09:10:14;;;;;;;;;;;;;;;36.15;12.77;96918.66;6294985;28;20312;-75
2023/05/14 09:13:18;;;;;;;;;;;;;;;33.04;14.52;96900.22;6298495;28;20368;-75
2023/05/14 09:16:23;;;;;;;;;;;;;;;30.73;15.64;96910.94;6281550;28;20007;-75
2023/05/14 09:19:26;;;;;;;;;;;;;;;27.50;18.45;96895.72;6299844;28;20011;-74
2023/05/14 09:22:32;;;;;;;;;;;;;;;25.59;20.38;96895.28;6299753;28;19973;-75
2023/05/14 09:25:34;;;;;;;;;;;;;;;24.49;21.24;96890.06;6281280;28;20015;-74
2023/05/14 09:28:41;;;;;;;;;;;;;;;23.70;21.58;96894.03;6281084;28;20043;-75
2023/05/14 09:31:44;;;;;;;;;;;;;;;23.03;22.37;96896.50;6281713;28;20451;-74
2023/05/14 09:34:47;;;;;;;;;;;;;;;22.48;22.68;96892.06;6281223;28;20358;-75
2023/05/14 09:37:51;;;;;;;;;;;;;;;22.24;22.90;96901.84;6299321;28;20420;-76
2023/05/14 09:40:55;;;;;;;;;;;;;;;22.04;22.76;96897.84;6299143;28;20034;-74
2023/05/14 09:44:00;;;;;;;;;;;;;;;22.08;23.38;96893.81;6280979;28;19928;-75
2023/05/14 09:47:04;;;;;;;;;;;;;;;21.94;23.89;96896.19;6298962;28;19920;-74
2023/05/14 09:50:07;;;;;;;;;;;;;;;21.67;24.42;96893.88;6281207;28;19975;-73
2023/05/14 09:53:10;;;;;;;;;;;;;;;21.33;24.88;96897.53;6280701;28;19982;-73
2023/05/14 09:56:13;;;;;;;;;;;;;;;20.88;24.96;96893.44;6299335;28;19981;-76
2023/05/14 09:59:17;;;;;;;;;;;;;;;20.71;25.66;96897.91;6298574;28;20011;-74
2023/05/14 10:02:22;;;;;;;;;;;;;;;20.44;25.72;96898.94;6298704;28;20301;-74
2023/05/14 10:05:25;;;;;;;;;;;;;;;20.47;25.52;96893.28;6280673;28;19973;-75
2023/05/14 10:08:32;;;;;;;;;;;;;;;20.73;24.95;96895.06;6298389;28;19938;-74
2023/05/14 10:11:37;;;;;;;;;;;;;;;21.05;24.57;96892.47;6280439;28;20419;-75
2023/05/14 10:14:45;;;;;;;;;;;;;;;21.38;24.28;96895.22;6298142;28;20408;-73
2023/05/14 10:17:50;;;;;;;;;;;;;;;21.71;23.97;96897.88;6280309;28;20017;-75
2023/05/14 10:21:02;;;;;;;;;;;;;;;21.99;23.55;96898.34;6280194;28;19921;-74
2023/05/14 10:24:06;;;;;;;;;;;;;;;22.32;23.54;96903.66;6277328;28;19916;-74
2023/05/14 10:27:10;;;;;;;;;;;;;;;22.83;22.95;96886.19;6297872;28;20010;-75
2023/05/14 10:30:13;;;;;;;;;;;;;;;23.27;22.74;96899.03;6297999;28;20008;-75
2023/05/14 10:33:17;;;;;;;;;;;;;;;23.41;22.94;96899.25;6280016;28;19920;-74
2023/05/14 10:36:31;;;;;;;;;;;;;;;23.71;22.93;96895.69;6295773;28;20016;-74
2023/05/14 10:39:42;;;;;;;;;;;;;;;24.26;23.06;96901.72;6297820;28;20069;-75
2023/05/14 10:42:45;;;;;;;;;;;;;;;24.97;22.70;96902.06;6297756;28;20377;-75
2023/05/14 10:45:48;;;;;;;;;;;;;;;24.99;22.88;96899.16;6297771;28;19927;-75
2023/05/14 10:48:52;;;;;;;;;;;;;;;24.82;23.48;96901.22;6297854;28;20018;-75
2023/05/14 10:51:55;;;;;;;;;;;;;;;24.76;23.84;96899.28;6297500;28;19921;-73
2023/05/14 10:55:01;;;;;;;;;;;;;;;24.78;23.72;96908.03;6297354;28;20065;-74
2023/05/14 10:58:04;;;;;;;;;;;;;;;24.83;23.98;96906.44;6279719;28;19927;-74
2023/05/14 11:01:09;;;;;;;;;;;;;;;24.76;24.16;96902.81;6297225;28;19960;-74
2023/05/14 11:04:18;;;;;;;;;;;;;;;24.76;24.28;96910.06;6297278;28;19959;-74
2023/05/14 11:07:24;;;;;;;;;;;;;;;24.72;24.11;96908.78;6279200;28;20386;-75
2023/05/14 11:10:29;;;;;;;;;;;;;;;24.45;24.86;96908.41;6296926;28;19986;-74
2023/05/14 11:13:33;;;;;;;;;;;;;;;24.53;24.90;96916.38;6279148;28;19942;-74
2023/05/14 11:16:36;;;;;;;;;;;;;;;24.83;24.56;96914.50;6279054;28;20017;-75
2023/05/14 11:19:41;;;;;;;;;;;;;;;24.87;24.61;96918.47;6296784;28;20061;-74
2023/05/14 11:22:45;;;;;;;;;;;;;;;24.39;25.27;96919.88;6297043;28;19943;-75
2023/05/14 11:25:47;;;;;;;;;;;;;;;23.87;25.93;96915.38;6262455;28;20303;-74
2023/05/14 11:28:51;;;;;;;;;;;;;;;23.56;26.31;96913.59;6296649;28;20469;-74
2023/05/14 11:31:55;;;;;;;;;;;;;;;23.02;26.97;96913.63;6296485;28;19941;-74
2023/05/14 11:34:57;;;;;;;;;;;;;;;22.96;27.09;96911.66;6277964;28;20010;-77
2023/05/14 11:38:06;;;;;;;;;;;;;;;22.81;27.12;96915.03;6293507;28;20309;-75
2023/05/14 11:41:21;;;;;;;;;;;;;;;22.83;26.97;96913.00;6293437;28;19956;-75
2023/05/14 11:44:25;;;;;;;;;;;;;;;22.93;26.96;96909.25;6296220;28;20041;-74
2023/05/14 11:47:28;;;;;;;;;;;;;;;22.99;26.89;96905.94;6296172;28;19927;-74
2023/05/14 11:50:35;;;;;;;;;;;;;;;22.76;26.95;96917.41;6278610;28;20016;-75
2023/05/14 11:53:38;;;;;;;;;;;;;;;22.63;27.35;96917.13;6296044;28;20014;-74
2023/05/14 11:56:42;;;;;;;;;;;;;;;22.69;27.21;96921.78;6295799;28;19942;-75
2023/05/14 11:59:46;;;;;;;;;;;;;;;22.45;27.47;96924.56;6295662;28;20017;-75
2023/05/14 12:02:50;;;;;;;;;;;;;;;22.21;27.80;96918.28;6295434;28;20069;-75
2023/05/14 12:05:57;;;;;;;;;;;;;;;22.06;27.89;96914.59;6295846;28;20384;-75
2023/05/14 12:09:00;;;;;;;;;;;;;;;21.91;28.12;96931.38;6277900;28;20032;-73
2023/05/14 12:12:12;;;;;;;;;;;;;;;21.89;27.73;96922.66;6295375;28;20017;-76
2023/05/14 12:15:16;;;;;;;;;;;;;;;21.88;27.70;96921.00;6295281;28;20011;-75
2023/05/14 12:18:20;;;;;;;;;;;;;;;21.85;27.92;96926.66;6277294;28;19927;-74
2023/05/14 12:21:24;;;;;;;;;;;;;;;21.76;27.89;96925.00;6278054;28;19920;-75
2023/05/14 12:24:28;;;;;;;;;;;;;;;21.62;27.95;96914.97;6295129;28;20069;-75
2023/05/14 12:27:31;;;;;;;;;;;;;;;21.50;27.79;96926.00;6294878;28;20010;-75
2023/05/14 12:30:37;;;;;;;;;;;;;;;21.50;27.78;96919.81;6295241;28;20065;-76
2023/05/14 12:33:39;;;;;;;;;;;;;;;21.47;27.80;96921.00;6294777;28;19927;-75
2023/05/14 12:36:42;;;;;;;;;;;;;;;21.36;28.12;96923.97;6295272;28;20066;-74
2023/05/14 12:39:45;;;;;;;;;;;;;;;21.35;28.16;96933.00;6295087;28;20454;-74
2023/05/14 12:42:48;;;;;;;;;;;;;;;21.34;27.97;96915.25;6277069;28;20453;-75
2023/05/14 12:45:52;;;;;;;;;;;;;;;21.45;27.65;96922.97;6294971;28;20046;-74
2023/05/14 12:48:56;;;;;;;;;;;;;;;21.53;27.94;96931.03;6294947;28;19975;-75
2023/05/14 12:52:00;;;;;;;;;;;;;;;21.56;27.72;96929.03;6294794;28;19965;-74
2023/05/14 12:55:03;;;;;;;;;;;;;;;21.38;28.12;96926.50;6294774;28;19966;-74
2023/05/14 12:58:07;;;;;;;;;;;;;;;21.30;28.24;96930.81;6294406;28;19953;-74
2023/05/14 13:01:10;;;;;;;;;;;;;;;21.32;28.20;96927.97;6294874;28;20093;-75
2023/05/14 13:04:13;;;;;;;;;;;;;;;21.19;28.40;96927.63;6294770;28;20297;-76
2023/05/14 13:07:17;;;;;;;;;;;;;;;21.08;28.49;96936.78;6294724;28;19973;-75
2023/05/14 13:10:21;;;;;;;;;;;;;;;20.98;28.78;96931.59;6294600;28;20029;-75
2023/05/14 13:13:25;;;;;;;;;;;;;;;20.88;28.68;96928.19;6276227;28;19946;-75
2023/05/14 13:16:28;;;;;;;;;;;;;;;20.78;28.67;96943.56;6294353;28;19947;-75
2023/05/14 13:19:31;;;;;;;;;;;;;;;20.65;28.96;96930.63;6276855;28;19920;-75
2023/05/14 13:22:35;;;;;;;;;;;;;;;20.59;29.00;96937.47;6276417;28;19982;-75
2023/05/14 13:25:37;;;;;;;;;;;;;;;20.49;28.99;96936.69;6276645;28;19981;-76
2023/05/14 13:28:40;;;;;;;;;;;;;;;20.28;29.10;96939.78;6294273;28;20019;-76
2023/05/14 13:31:44;;;;;;;;;;;;;;;20.09;29.42;96940.81;6276186;28;19920;-76
2023/05/14 13:34:47;;;;;;;;;;;;;;;19.95;29.65;96938.72;6294547;28;20015;-77
2023/05/14 13:37:51;;;;;;;;;;;;;;;19.73;29.63;96943.59;6294404;28;19965;-76
2023/05/14 13:40:56;;;;;;;;;;;;;;;19.63;29.91;96939.31;6294300;28;19931;-75
2023/05/14 13:43:59;;;;;;;;;;;;;;;19.58;29.85;96944.25;6294198;28;19963;-76
2023/05/14 13:47:03;;;;;;;;;;;;;;;19.53;29.86;96944.72;6276245;28;19941;-75
2023/05/14 13:50:07;;;;;;;;;;;;;;;19.40;30.27;96938.94;6294130;28;19921;-75
2023/05/14 13:53:10;;;;;;;;;;;;;;;19.29;30.05;96943.50;6294204;28;20134;-74
2023/05/14 13:56:14;;;;;;;;;;;;;;;19.20;30.23;96944.41;6294131;28;20040;-76
2023/05/14 13:59:17;;;;;;;;;;;;;;;19.06;30.55;96937.78;6297183;28;20234;-75
2023/05/14 14:02:20;;;;;;;;;;;;;;;18.97;30.74;96944.03;6298461;28;19920;-75
2023/05/14 14:05:27;;;;;;;;;;;;;;;18.92;30.90;96945.47;6298405;28;19920;-75
2023/05/14 14:08:30;;;;;;;;;;;;;;;18.75;31.54;96953.25;6298412;28;19927;-76
2023/05/14 14:11:33;;;;;;;;;;;;;;;18.67;31.57;96954.97;6298381;28;19931;-75
2023/05/14 14:14:37;;;;;;;;;;;;;;;18.58;31.46;96957.53;6298197;28;20014;-76
2023/05/14 14:17:40;;;;;;;;;;;;;;;18.52;31.52;96954.63;6262652;28;19924;-74
2023/05/14 14:20:43;;;;;;;;;;;;;;;18.46;32.02;96952.53;6298289;28;20014;-75
2023/05/14 14:23:47;;;;;;;;;;;;;;;18.39;31.55;96954.94;6297964;28;19926;-75
2023/05/14 14:26:50;;;;;;;;;;;;;;;18.28;32.18;96953.28;6279812;28;20335;-76
2023/05/14 14:29:55;;;;;;;;;;;;;;;18.12;31.96;96953.06;6280202;28;20342;-75
2023/05/14 14:33:00;;;;;;;;;;;;;;;18.02;32.48;96968.22;6298130;28;19926;-76
2023/05/14 14:36:03;;;;;;;;;;;;;;;17.97;32.58;96970.47;6297923;28;20417;-74
2023/05/14 14:39:06;;;;;;;;;;;;;;;17.77;33.51;96967.81;6297840;28;20073;-75
2023/05/14 14:42:10;;;;;;;;;;;;;;;17.58;34.95;96970.47;6297540;28;20460;-74
2023/05/14 14:45:13;;;;;;;;;;;;;;;17.39;36.03;96972.16;6298114;28;20361;-75
2023/05/14 14:48:23;;;;;;;;;;;;;;;17.20;36.06;96973.00;6279106;28;20406;-76
2023/05/14 14:51:27;;;;;;;;;;;;;;;17.04;36.60;96981.50;6297819;28;19942;-77
2023/05/14 14:54:30;;;;;;;;;;;;;;;16.95;37.04;96973.50;6297331;28;20055;-75
2023/05/14 14:57:33;;;;;;;;;;;;;;;16.80;37.48;96981.03;6279474;28;20317;-75
2023/05/14 15:00:36;;;;;;;;;;;;;;;16.76;37.50;96979.59;6279543;28;20018;-74
2023/05/14 15:03:40;;;;;;;;;;;;;;;16.64;37.25;96985.97;6279109;28;20022;-75
2023/05/14 15:06:43;;;;;;;;;;;;;;;16.52;38.19;96986.06;6279409;28;20551;-75
2023/05/14 15:09:45;;;;;;;;;;;;;;;16.39;38.07;96990.78;6279700;28;20263;-76
2023/05/14 15:12:48;;;;;;;;;;;;;;;16.30;38.14;96999.53;6297110;28;20057;-75
2023/05/14 15:15:52;;;;;;;;;;;;;;;16.19;39.79;96997.78;6296999;28;20294;-74
2023/05/14 15:18:55;;;;;;;;;;;;;;;16.10;39.12;96999.41;6279356;28;20019;-76
2023/05/14 15:21:58;;;;;;;;;;;;;;;15.95;39.35;96995.41;6279064;28;20395;-76
2023/05/14 15:25:02;;;;;;;;;;;;;;;15.89;39.70;96995.94;6297100;28;19920;-74
2023/05/14 15:28:07;;;;;;;;;;;;;;;15.78;40.04;96996.00;6296827;28;20051;-76
2023/05/14 15:31:10;;;;;;;;;;;;;;;15.64;39.57;96997.94;6296707;28;20031;-75
2023/05/14 15:34:14;;;;;;;;;;;;;;;15.56;40.41;97005.69;6296636;28;20066;-75
2023/05/14 15:37:18;;;;;;;;;;;;;;;15.45;41.04;97006.59;6296719;28;20052;-75
2023/05/14 15:40:22;;;;;;;;;;;;;;;15.37;40.51;97000.22;6296525;28;19967;-75
2023/05/14 15:43:26;;;;;;;;;;;;;;;15.33;40.91;97014.72;6296282;28;19969;-75
2023/05/14 15:46:29;;;;;;;;;;;;;;;15.24;41.04;97006.53;6278828;28;19920;-75
2023/05/14 15:49:33;;;;;;;;;;;;;;;15.21;40.97;97014.75;6296043;28;19965;-75
2023/05/14 15:52:38;;;;;;;;;;;;;;;15.11;40.83;97021.75;6296368;28;19943;-76
2023/05/14 15:55:41;;;;;;;;;;;;;;;15.06;41.20;97018.66;6278444;28;19928;-77
2023/05/14 15:58:45;;;;;;;;;;;;;;;14.98;41.86;97021.91;6277705;28;20469;-76